Terminal Aerodrome Forecast
Issued by NWS

Home | Current Version | Previous Version | Graphics & Text | Print | Product List | Glossary Off
Versions: 1 2 3 4 5 6 7 8 9 10 11 12 13 14 15 16 17 18 19 20 21 22 23 24 25 26 27 28 29 30 31 32

000
FTUS43 KDDC 180957 AAA
TAFGCK
TAF AMD
KGCK 180957Z 1810/1906 VRB06KT P6SM SCT200
      TEMPO 1812/1814 4SM BR BKN005
     FM181400 17011KT P6SM SCT200=

USA.gov is the U.S. government's official web portal to all federal, state and local government web resources and services.